sensor_id;sensor_type;location;lat;lon;timestamp;pressure;altitude;pressure_sealevel;temperature;humidity
32320;BME280;19080;51.750;5.888;2023-04-25T00:02:02;100806.72;;;6.65;100.00
32320;BME280;19080;51.750;5.888;2023-04-25T00:04:29;100829.94;;;6.76;100.00
32320;BME280;19080;51.750;5.888;2023-04-25T00:06:58;100857.81;;;6.98;100.00
32320;BME280;19080;51.750;5.888;2023-04-25T00:09:27;100645.88;;;5.78;100.00
32320;BME280;19080;51.750;5.888;2023-04-25T00:11:54;100857.88;;;7.00;100.00
32320;BME280;19080;51.750;5.888;2023-04-25T00:14:21;100815.00;;;6.77;100.00
32320;BME280;19080;51.750;5.888;2023-04-25T00:16:49;100839.81;;;6.83;100.00
32320;BME280;19080;51.750;5.888;2023-04-25T00:19:18;100820.03;;;6.69;100.00
32320;BME280;19080;51.750;5.888;2023-04-25T00:21:44;100843.16;;;6.78;100.00
32320;BME280;19080;51.750;5.888;2023-04-25T00:24:13;100828.84;;;6.70;100.00
32320;BME280;19080;51.750;5.888;2023-04-25T00:26:40;100847.56;;;6.77;100.00
32320;BME280;19080;51.750;5.888;2023-04-25T00:29:06;100847.50;;;6.76;100.00
32320;BME280;19080;51.750;5.888;2023-04-25T00:31:33;100852.63;;;6.71;100.00
32320;BME280;19080;51.750;5.888;2023-04-25T00:34:00;100873.59;;;6.67;100.00
32320;BME280;19080;51.750;5.888;2023-04-25T00:36:26;100855.25;;;6.43;100.00
32320;BME280;19080;51.750;5.888;2023-04-25T00:38:54;100864.16;;;6.46;100.00
32320;BME280;19080;51.750;5.888;2023-04-25T00:41:21;100885.66;;;6.59;100.00
32320;BME280;19080;51.750;5.888;2023-04-25T00:43:49;100850.78;;;6.40;100.00
32320;BME280;19080;51.750;5.888;2023-04-25T00:46:17;100860.72;;;6.49;100.00
32320;BME280;19080;51.750;5.888;2023-04-25T00:48:44;100776.59;;;6.01;100.00
32320;BME280;19080;51.750;5.888;2023-04-25T00:51:16;100859.94;;;6.51;100.00
32320;BME280;19080;51.750;5.888;2023-04-25T00:53:46;100847.50;;;6.47;100.00
32320;BME280;19080;51.750;5.888;2023-04-25T00:56:14;100887.53;;;6.63;100.00
32320;BME280;19080;51.750;5.888;2023-04-25T00:58:41;100861.72;;;6.52;100.00
32320;BME280;19080;51.750;5.888;2023-04-25T01:01:10;100874.19;;;6.58;100.00
32320;BME280;19080;51.750;5.888;2023-04-25T01:03:38;100888.28;;;6.59;100.00
32320;BME280;19080;51.750;5.888;2023-04-25T01:06:10;100884.91;;;6.63;100.00
32320;BME280;19080;51.750;5.888;2023-04-25T01:08:38;100855.09;;;6.38;100.00
32320;BME280;19080;51.750;5.888;2023-04-25T01:11:06;100854.38;;;6.42;100.00
32320;BME280;19080;51.750;5.888;2023-04-25T01:13:34;100842.38;;;6.25;100.00
32320;BME280;19080;51.750;5.888;2023-04-25T01:16:02;100832.78;;;6.27;100.00
32320;BME280;19080;51.750;5.888;2023-04-25T01:18:28;100881.66;;;6.44;100.00
32320;BME280;19080;51.750;5.888;2023-04-25T01:21:02;100831.34;;;6.10;100.00
32320;BME280;19080;51.750;5.888;2023-04-25T01:23:35;100778.44;;;5.78;100.00
32320;BME280;19080;51.750;5.888;2023-04-25T01:26:03;100867.59;;;6.17;100.00
32320;BME280;19080;51.750;5.888;2023-04-25T01:28:30;100860.22;;;6.07;100.00
32320;BME280;19080;51.750;5.888;2023-04-25T01:30:57;100757.63;;;5.34;100.00
32320;BME280;19080;51.750;5.888;2023-04-25T01:33:24;100883.94;;;6.07;100.00
32320;BME280;19080;51.750;5.888;2023-04-25T01:35:51;100897.91;;;6.04;100.00
32320;BME280;19080;51.750;5.888;2023-04-25T01:38:19;100871.94;;;5.90;100.00
32320;BME280;19080;51.750;5.888;2023-04-25T01:40:48;100899.81;;;5.84;100.00
32320;BME280;19080;51.750;5.888;2023-04-25T01:43:18;100865.63;;;5.61;100.00
32320;BME280;19080;51.750;5.888;2023-04-25T01:45:45;100861.19;;;5.60;100.00
32320;BME280;19080;51.750;5.888;2023-04-25T01:48:13;100857.66;;;5.59;100.00
32320;BME280;19080;51.750;5.888;2023-04-25T01:50:43;100873.50;;;5.61;100.00
32320;BME280;19080;51.750;5.888;2023-04-25T01:53:12;100889.47;;;5.65;100.00
32320;BME280;19080;51.750;5.888;2023-04-25T01:55:41;100871.56;;;5.55;100.00
32320;BME280;19080;51.750;5.888;2023-04-25T01:58:13;100890.09;;;5.58;100.00
32320;BME280;19080;51.750;5.888;2023-04-25T02:00:55;100883.16;;;5.60;100.00
32320;BME280;19080;51.750;5.888;2023-04-25T02:03:25;100875.13;;;5.57;100.00
32320;BME280;19080;51.750;5.888;2023-04-25T02:05:53;100885.16;;;5.67;100.00
32320;BME280;19080;51.750;5.888;2023-04-25T02:08:20;100891.16;;;5.63;100.00
32320;BME280;19080;51.750;5.888;2023-04-25T02:10:47;100900.53;;;5.80;100.00
32320;BME280;19080;51.750;5.888;2023-04-25T02:13:16;100887.56;;;5.61;100.00
32320;BME280;19080;51.750;5.888;2023-04-25T02:15:49;100909.47;;;5.60;100.00
32320;BME280;19080;51.750;5.888;2023-04-25T02:18:19;100906.41;;;5.48;100.00
32320;BME280;19080;51.750;5.888;2023-04-25T02:20:47;100886.41;;;5.29;100.00
32320;BME280;19080;51.750;5.888;2023-04-25T02:23:14;100938.22;;;5.54;100.00
32320;BME280;19080;51.750;5.888;2023-04-25T02:25:45;100813.28;;;4.73;100.00
32320;BME280;19080;51.750;5.888;2023-04-25T02:28:13;100919.47;;;5.22;100.00
32320;BME280;19080;51.750;5.888;2023-04-25T02:30:39;100836.72;;;4.67;100.00
32320;BME280;19080;51.750;5.888;2023-04-25T02:33:06;100895.38;;;4.88;100.00
32320;BME280;19080;51.750;5.888;2023-04-25T02:35:35;100884.09;;;4.68;100.00
32320;BME280;19080;51.750;5.888;2023-04-25T02:38:03;100923.06;;;4.78;100.00
32320;BME280;19080;51.750;5.888;2023-04-25T02:40:32;100925.25;;;4.68;100.00
32320;BME280;19080;51.750;5.888;2023-04-25T02:42:59;100933.88;;;4.64;100.00
32320;BME280;19080;51.750;5.888;2023-04-25T02:45:26;100946.16;;;4.65;100.00
32320;BME280;19080;51.750;5.888;2023-04-25T02:47:53;100898.94;;;4.45;100.00
32320;BME280;19080;51.750;5.888;2023-04-25T02:50:19;100838.63;;;4.05;100.00
32320;BME280;19080;51.750;5.888;2023-04-25T02:52:46;100944.00;;;4.54;100.00
32320;BME280;19080;51.750;5.888;2023-04-25T02:55:17;100906.06;;;4.27;100.00
32320;BME280;19080;51.750;5.888;2023-04-25T02:57:45;100914.78;;;4.26;100.00
32320;BME280;19080;51.750;5.888;2023-04-25T03:00:18;100880.19;;;3.95;100.00
32320;BME280;19080;51.750;5.888;2023-04-25T03:02:45;100944.41;;;4.22;100.00
32320;BME280;19080;51.750;5.888;2023-04-25T03:05:12;100940.69;;;4.17;100.00
32320;BME280;19080;51.750;5.888;2023-04-25T03:07:39;100908.88;;;3.90;100.00
32320;BME280;19080;51.750;5.888;2023-04-25T03:10:06;100934.00;;;4.04;100.00
32320;BME280;19080;51.750;5.888;2023-04-25T03:12:34;100933.81;;;4.00;100.00
32320;BME280;19080;51.750;5.888;2023-04-25T03:15:03;100954.13;;;4.04;100.00
32320;BME280;19080;51.750;5.888;2023-04-25T03:17:30;100910.91;;;3.76;100.00
32320;BME280;19080;51.750;5.888;2023-04-25T03:19:57;100959.09;;;3.98;100.00
32320;BME280;19080;51.750;5.888;2023-04-25T03:22:25;100901.53;;;3.62;100.00
32320;BME280;19080;51.750;5.888;2023-04-25T03:24:52;100913.69;;;3.60;100.00
32320;BME280;19080;51.750;5.888;2023-04-25T03:27:19;100929.66;;;3.65;100.00
32320;BME280;19080;51.750;5.888;2023-04-25T03:29:46;100951.25;;;3.78;100.00
32320;BME280;19080;51.750;5.888;2023-04-25T03:32:13;100914.97;;;3.49;100.00
32320;BME280;19080;51.750;5.888;2023-04-25T03:34:39;100947.25;;;3.67;100.00
32320;BME280;19080;51.750;5.888;2023-04-25T03:37:06;100958.78;;;3.71;100.00
32320;BME280;19080;51.750;5.888;2023-04-25T03:39:36;100955.22;;;3.69;100.00
32320;BME280;19080;51.750;5.888;2023-04-25T03:42:05;100962.25;;;3.70;100.00
32320;BME280;19080;51.750;5.888;2023-04-25T03:44:32;100956.25;;;3.72;100.00
32320;BME280;19080;51.750;5.888;2023-04-25T03:47:00;100951.00;;;3.72;100.00
32320;BME280;19080;51.750;5.888;2023-04-25T03:49:27;100926.06;;;3.63;100.00
32320;BME280;19080;51.750;5.888;2023-04-25T03:51:57;100942.00;;;3.67;100.00
32320;BME280;19080;51.750;5.888;2023-04-25T03:54:24;100963.41;;;3.76;100.00
32320;BME280;19080;51.750;5.888;2023-04-25T03:57:15;100927.38;;;3.53;100.00
32320;BME280;19080;51.750;5.888;2023-04-25T03:59:42;100970.47;;;3.77;100.00
32320;BME280;19080;51.750;5.888;2023-04-25T04:02:11;100945.59;;;3.69;100.00
32320;BME280;19080;51.750;5.888;2023-04-25T04:04:38;100936.75;;;3.67;100.00
32320;BME280;19080;51.750;5.888;2023-04-25T04:07:06;100932.69;;;3.74;100.00
32320;BME280;19080;51.750;5.888;2023-04-25T04:09:35;100936.47;;;3.80;100.00
32320;BME280;19080;51.750;5.888;2023-04-25T04:12:06;100819.19;;;3.18;100.00
32320;BME280;19080;51.750;5.888;2023-04-25T04:14:34;100951.50;;;4.04;100.00
32320;BME280;19080;51.750;5.888;2023-04-25T04:17:01;100932.22;;;4.03;100.00
32320;BME280;19080;51.750;5.888;2023-04-25T04:19:29;100951.38;;;4.21;100.00
32320;BME280;19080;51.750;5.888;2023-04-25T04:22:09;100946.06;;;4.20;100.00
32320;BME280;19080;51.750;5.888;2023-04-25T04:24:37;100955.41;;;4.34;100.00
32320;BME280;19080;51.750;5.888;2023-04-25T04:27:06;100927.88;;;4.24;100.00
32320;BME280;19080;51.750;5.888;2023-04-25T04:29:36;100912.50;;;4.13;100.00
32320;BME280;19080;51.750;5.888;2023-04-25T04:32:13;100877.00;;;4.02;100.00
32320;BME280;19080;51.750;5.888;2023-04-25T04:34:40;100944.16;;;4.37;100.00
32320;BME280;19080;51.750;5.888;2023-04-25T04:37:08;100869.31;;;3.85;100.00
32320;BME280;19080;51.750;5.888;2023-04-25T04:39:35;100988.88;;;4.38;100.00
32320;BME280;19080;51.750;5.888;2023-04-25T04:42:28;100993.69;;;4.28;100.00
32320;BME280;19080;51.750;5.888;2023-04-25T04:45:24;100974.38;;;4.06;100.00
32320;BME280;19080;51.750;5.888;2023-04-25T04:48:05;100908.59;;;3.63;100.00
32320;BME280;19080;51.750;5.888;2023-04-25T04:50:35;100960.63;;;3.92;100.00
32320;BME280;19080;51.750;5.888;2023-04-25T04:53:20;100992.47;;;4.00;100.00
32320;BME280;19080;51.750;5.888;2023-04-25T04:56:14;101002.00;;;4.17;100.00
32320;BME280;19080;51.750;5.888;2023-04-25T04:58:50;100983.69;;;4.19;100.00
32320;BME280;19080;51.750;5.888;2023-04-25T05:01:40;100982.72;;;4.38;100.00
32320;BME280;19080;51.750;5.888;2023-04-25T05:04:19;101007.84;;;4.73;100.00
32320;BME280;19080;51.750;5.888;2023-04-25T05:07:04;100993.34;;;4.82;100.00
32320;BME280;19080;51.750;5.888;2023-04-25T05:09:31;101005.44;;;5.00;100.00
32320;BME280;19080;51.750;5.888;2023-04-25T05:12:08;100999.91;;;5.14;100.00
32320;BME280;19080;51.750;5.888;2023-04-25T05:14:35;101017.44;;;5.38;100.00
32320;BME280;19080;51.750;5.888;2023-04-25T05:17:08;101033.47;;;5.66;100.00
32320;BME280;19080;51.750;5.888;2023-04-25T05:19:53;101028.94;;;5.86;100.00
32320;BME280;19080;51.750;5.888;2023-04-25T05:22:33;101001.59;;;5.82;100.00
32320;BME280;19080;51.750;5.888;2023-04-25T05:25:12;101033.72;;;6.20;100.00
32320;BME280;19080;51.750;5.888;2023-04-25T05:27:48;101027.84;;;6.27;100.00
32320;BME280;19080;51.750;5.888;2023-04-25T05:30:35;101034.38;;;6.38;100.00
32320;BME280;19080;51.750;5.888;2023-04-25T05:33:08;101005.16;;;6.32;100.00
32320;BME280;19080;51.750;5.888;2023-04-25T05:35:35;101018.88;;;6.47;100.00
32320;BME280;19080;51.750;5.888;2023-04-25T05:38:02;101044.41;;;6.74;100.00
32320;BME280;19080;51.750;5.888;2023-04-25T05:40:51;101046.94;;;6.71;100.00
32320;BME280;19080;51.750;5.888;2023-04-25T05:43:41;101051.63;;;6.79;100.00
32320;BME280;19080;51.750;5.888;2023-04-25T05:46:34;101042.13;;;6.84;100.00
32320;BME280;19080;51.750;5.888;2023-04-25T05:49:11;101029.06;;;6.89;100.00
32320;BME280;19080;51.750;5.888;2023-04-25T05:51:55;100982.00;;;6.74;100.00
32320;BME280;19080;51.750;5.888;2023-04-25T05:54:51;100987.59;;;6.85;100.00
32320;BME280;19080;51.750;5.888;2023-04-25T05:57:23;101071.22;;;7.41;100.00
32320;BME280;19080;51.750;5.888;2023-04-25T05:59:51;101065.41;;;7.53;100.00
32320;BME280;19080;51.750;5.888;2023-04-25T06:02:20;101061.16;;;7.58;100.00
32320;BME280;19080;51.750;5.888;2023-04-25T06:04:50;101053.34;;;7.61;100.00
32320;BME280;19080;51.750;5.888;2023-04-25T06:07:20;101087.75;;;7.93;100.00
32320;BME280;19080;51.750;5.888;2023-04-25T06:09:47;101084.63;;;8.06;100.00
32320;BME280;19080;51.750;5.888;2023-04-25T06:12:14;101098.13;;;8.15;100.00
32320;BME280;19080;51.750;5.888;2023-04-25T06:14:41;101068.84;;;8.09;100.00
32320;BME280;19080;51.750;5.888;2023-04-25T06:17:07;101064.84;;;8.23;100.00
32320;BME280;19080;51.750;5.888;2023-04-25T06:19:37;101094.31;;;8.35;100.00
32320;BME280;19080;51.750;5.888;2023-04-25T06:22:04;101052.50;;;8.22;100.00
32320;BME280;19080;51.750;5.888;2023-04-25T06:24:32;101061.47;;;8.29;100.00
32320;BME280;19080;51.750;5.888;2023-04-25T06:27:02;101091.81;;;8.40;100.00
32320;BME280;19080;51.750;5.888;2023-04-25T06:29:29;101063.75;;;8.15;100.00
32320;BME280;19080;51.750;5.888;2023-04-25T06:31:56;101088.66;;;8.23;100.00
32320;BME280;19080;51.750;5.888;2023-04-25T06:34:23;100977.50;;;7.57;100.00
32320;BME280;19080;51.750;5.888;2023-04-25T06:36:50;101107.88;;;8.47;100.00
32320;BME280;19080;51.750;5.888;2023-04-25T06:39:18;101074.53;;;8.53;100.00
32320;BME280;19080;51.750;5.888;2023-04-25T06:41:48;101076.41;;;8.91;100.00
32320;BME280;19080;51.750;5.888;2023-04-25T06:44:35;101110.69;;;9.57;100.00
32320;BME280;19080;51.750;5.888;2023-04-25T06:47:06;101081.03;;;10.14;100.00
32320;BME280;19080;51.750;5.888;2023-04-25T06:49:32;101041.66;;;9.92;100.00
32320;BME280;19080;51.750;5.888;2023-04-25T06:52:00;101096.97;;;10.59;100.00
32320;BME280;19080;51.750;5.888;2023-04-25T06:54:27;101082.16;;;10.72;100.00
32320;BME280;19080;51.750;5.888;2023-04-25T06:57:03;101086.72;;;10.79;100.00
32320;BME280;19080;51.750;5.888;2023-04-25T06:59:31;101096.69;;;10.92;100.00
32320;BME280;19080;51.750;5.888;2023-04-25T07:02:00;101114.41;;;11.45;100.00
32320;BME280;19080;51.750;5.888;2023-04-25T07:04:27;101103.13;;;11.59;100.00
32320;BME280;19080;51.750;5.888;2023-04-25T07:06:56;101030.38;;;11.54;100.00
32320;BME280;19080;51.750;5.888;2023-04-25T07:09:30;101120.25;;;12.45;100.00
32320;BME280;19080;51.750;5.888;2023-04-25T07:12:00;101101.75;;;12.58;94.43
32320;BME280;19080;51.750;5.888;2023-04-25T07:14:28;101124.81;;;12.55;87.37
32320;BME280;19080;51.750;5.888;2023-04-25T07:16:56;101138.88;;;12.45;94.56
32320;BME280;19080;51.750;5.888;2023-04-25T07:19:25;101121.31;;;12.60;92.67
32320;BME280;19080;51.750;5.888;2023-04-25T07:21:56;101135.75;;;12.81;88.17
32320;BME280;19080;51.750;5.888;2023-04-25T07:24:22;101139.22;;;12.75;88.11
32320;BME280;19080;51.750;5.888;2023-04-25T07:26:51;101146.22;;;12.65;87.21
32320;BME280;19080;51.750;5.888;2023-04-25T07:29:28;101116.41;;;13.00;95.94
32320;BME280;19080;51.750;5.888;2023-04-25T07:31:57;101125.72;;;13.43;77.92
32320;BME280;19080;51.750;5.888;2023-04-25T07:34:24;101124.06;;;13.62;72.60
32320;BME280;19080;51.750;5.888;2023-04-25T07:36:51;101137.53;;;13.79;69.53
32320;BME280;19080;51.750;5.888;2023-04-25T07:39:20;101144.53;;;13.61;71.83
32320;BME280;19080;51.750;5.888;2023-04-25T07:41:47;101120.31;;;13.34;70.00
32320;BME280;19080;51.750;5.888;2023-04-25T07:44:19;101115.41;;;12.89;71.54
32320;BME280;19080;51.750;5.888;2023-04-25T07:46:46;101111.53;;;12.58;73.95
32320;BME280;19080;51.750;5.888;2023-04-25T07:49:14;101136.13;;;12.38;79.63
32320;BME280;19080;51.750;5.888;2023-04-25T07:51:43;101148.34;;;12.23;76.90
32320;BME280;19080;51.750;5.888;2023-04-25T07:54:14;101147.41;;;12.19;81.05
32320;BME280;19080;51.750;5.888;2023-04-25T07:56:45;101145.03;;;12.41;76.37
32320;BME280;19080;51.750;5.888;2023-04-25T07:59:34;101147.94;;;12.60;78.47
32320;BME280;19080;51.750;5.888;2023-04-25T08:02:07;101139.81;;;12.50;75.09
32320;BME280;19080;51.750;5.888;2023-04-25T08:04:34;101160.34;;;12.58;70.54
32320;BME280;19080;51.750;5.888;2023-04-25T08:07:03;101093.25;;;12.14;69.96
32320;BME280;19080;51.750;5.888;2023-04-25T08:09:38;101090.53;;;12.08;75.69
32320;BME280;19080;51.750;5.888;2023-04-25T08:12:09;101180.78;;;12.61;77.42
32320;BME280;19080;51.750;5.888;2023-04-25T08:14:36;101163.72;;;12.45;76.17
32320;BME280;19080;51.750;5.888;2023-04-25T08:17:04;101189.97;;;12.86;72.68
32320;BME280;19080;51.750;5.888;2023-04-25T08:19:37;101185.13;;;13.30;70.19
32320;BME280;19080;51.750;5.888;2023-04-25T08:22:05;101174.94;;;13.91;64.18
32320;BME280;19080;51.750;5.888;2023-04-25T08:24:42;101188.50;;;14.24;57.59
32320;BME280;19080;51.750;5.888;2023-04-25T08:27:09;101195.31;;;13.77;56.67
32320;BME280;19080;51.750;5.888;2023-04-25T08:29:37;101184.69;;;12.90;57.61
32320;BME280;19080;51.750;5.888;2023-04-25T08:32:04;101194.88;;;12.52;58.42
32320;BME280;19080;51.750;5.888;2023-04-25T08:34:33;101136.41;;;12.60;58.36
32320;BME280;19080;51.750;5.888;2023-04-25T08:37:02;101202.25;;;13.55;59.35
32320;BME280;19080;51.750;5.888;2023-04-25T08:39:39;101171.34;;;13.83;60.12
32320;BME280;19080;51.750;5.888;2023-04-25T08:42:21;101214.47;;;14.47;56.61
32320;BME280;19080;51.750;5.888;2023-04-25T08:44:49;101153.44;;;13.66;56.31
32320;BME280;19080;51.750;5.888;2023-04-25T08:47:19;101159.56;;;13.53;56.92
32320;BME280;19080;51.750;5.888;2023-04-25T08:49:53;101201.66;;;13.97;58.37
32320;BME280;19080;51.750;5.888;2023-04-25T08:52:24;101146.81;;;13.19;59.22
32320;BME280;19080;51.750;5.888;2023-04-25T08:54:54;101154.94;;;13.31;59.22
32320;BME280;19080;51.750;5.888;2023-04-25T08:57:22;101222.97;;;13.91;58.19
32320;BME280;19080;51.750;5.888;2023-04-25T08:59:51;101220.22;;;13.77;58.56
32320;BME280;19080;51.750;5.888;2023-04-25T09:02:20;101240.75;;;13.89;58.73
32320;BME280;19080;51.750;5.888;2023-04-25T09:04:49;101193.69;;;14.01;56.00
32320;BME280;19080;51.750;5.888;2023-04-25T09:07:16;101234.19;;;14.73;54.26
32320;BME280;19080;51.750;5.888;2023-04-25T09:09:45;101174.63;;;15.17;51.54
32320;BME280;19080;51.750;5.888;2023-04-25T09:12:18;101246.03;;;16.15;51.05
32320;BME280;19080;51.750;5.888;2023-04-25T09:15:08;101252.28;;;15.62;48.64
32320;BME280;19080;51.750;5.888;2023-04-25T09:18:03;101257.44;;;14.92;49.96
32320;BME280;19080;51.750;5.888;2023-04-25T09:20:42;101261.84;;;14.78;49.36
32320;BME280;19080;51.750;5.888;2023-04-25T09:23:26;101250.84;;;14.32;49.46
32320;BME280;19080;51.750;5.888;2023-04-25T09:30:15;101183.50;;;13.44;50.93
32320;BME280;19080;51.750;5.888;2023-04-25T09:34:01;101280.66;;;13.71;53.04
32320;BME280;19080;51.750;5.888;2023-04-25T09:41:11;101269.66;;;14.43;53.46
32320;BME280;19080;51.750;5.888;2023-04-25T09:55:09;101261.22;;;15.98;43.98
32320;BME280;19080;51.750;5.888;2023-04-25T10:02:21;101288.44;;;17.46;42.50
32320;BME280;19080;51.750;5.888;2023-04-25T11:27:57;101316.13;;;17.57;37.69
32320;BME280;19080;51.750;5.888;2023-04-25T11:30:25;101291.50;;;16.58;39.33
32320;BME280;19080;51.750;5.888;2023-04-25T11:32:53;101262.97;;;15.53;41.15
32320;BME280;19080;51.750;5.888;2023-04-25T11:35:20;101333.34;;;15.26;42.27
32320;BME280;19080;51.750;5.888;2023-04-25T11:37:49;101325.00;;;14.67;44.21
32320;BME280;19080;51.750;5.888;2023-04-25T11:40:17;101327.59;;;14.53;43.59
32320;BME280;19080;51.750;5.888;2023-04-25T11:42:46;101258.59;;;13.96;44.61
32320;BME280;19080;51.750;5.888;2023-04-25T11:45:14;101356.56;;;14.08;45.80
32320;BME280;19080;51.750;5.888;2023-04-25T11:47:41;101335.06;;;13.86;46.61
32320;BME280;19080;51.750;5.888;2023-04-25T11:50:08;101313.16;;;14.31;46.28
32320;BME280;19080;51.750;5.888;2023-04-25T11:52:43;101346.00;;;16.25;43.55
32320;BME280;19080;51.750;5.888;2023-04-25T11:55:18;101321.13;;;18.12;40.98
32320;BME280;19080;51.750;5.888;2023-04-25T11:57:47;101270.81;;;19.11;38.19
32320;BME280;19080;51.750;5.888;2023-04-25T12:00:17;101337.84;;;19.29;36.67
32320;BME280;19080;51.750;5.888;2023-04-25T12:02:51;101328.75;;;17.40;38.42
32320;BME280;19080;51.750;5.888;2023-04-25T12:05:20;101333.50;;;16.06;41.09
32320;BME280;19080;51.750;5.888;2023-04-25T12:08:14;101314.72;;;15.65;41.11
32320;BME280;19080;51.750;5.888;2023-04-25T12:10:43;101335.97;;;17.32;41.40
32320;BME280;19080;51.750;5.888;2023-04-25T12:13:20;101257.75;;;17.92;39.40
32320;BME280;19080;51.750;5.888;2023-04-25T12:15:47;101323.59;;;19.21;36.96
32320;BME280;19080;51.750;5.888;2023-04-25T12:18:14;101313.84;;;19.80;36.70
32320;BME280;19080;51.750;5.888;2023-04-25T12:20:41;101268.06;;;19.78;35.84
32320;BME280;19080;51.750;5.888;2023-04-25T12:23:08;101326.31;;;19.18;36.33
32320;BME280;19080;51.750;5.888;2023-04-25T12:25:42;101284.94;;;17.34;38.22
32320;BME280;19080;51.750;5.888;2023-04-25T12:28:19;101358.50;;;16.70;40.61
32320;BME280;19080;51.750;5.888;2023-04-25T12:33:25;101278.09;;;16.53;39.75
32320;BME280;19080;51.750;5.888;2023-04-25T12:35:53;101343.94;;;18.71;37.68
32320;BME280;19080;51.750;5.888;2023-04-25T12:38:25;101316.72;;;19.66;36.90
32320;BME280;19080;51.750;5.888;2023-04-25T12:40:52;101358.09;;;17.80;37.23
32320;BME280;19080;51.750;5.888;2023-04-25T12:43:20;101341.53;;;16.60;39.06
32320;BME280;19080;51.750;5.888;2023-04-25T12:45:54;101375.25;;;15.32;41.68
32320;BME280;19080;51.750;5.888;2023-04-25T12:48:22;101370.34;;;14.55;43.99
32320;BME280;19080;51.750;5.888;2023-04-25T12:50:49;101265.28;;;13.45;45.39
32320;BME280;19080;51.750;5.888;2023-04-25T12:53:18;101377.56;;;13.68;48.14
32320;BME280;19080;51.750;5.888;2023-04-25T12:55:45;101375.16;;;13.17;49.60
32320;BME280;19080;51.750;5.888;2023-04-25T12:58:18;101306.72;;;12.52;51.19
32320;BME280;19080;51.750;5.888;2023-04-25T13:00:46;101397.72;;;12.81;50.88
32320;BME280;19080;51.750;5.888;2023-04-25T13:03:13;101391.47;;;12.81;51.15
32320;BME280;19080;51.750;5.888;2023-04-25T13:05:40;101378.56;;;13.81;48.73
32320;BME280;19080;51.750;5.888;2023-04-25T13:08:07;101378.97;;;15.68;45.99
32320;BME280;19080;51.750;5.888;2023-04-25T13:10:34;101380.84;;;16.52;44.21
32320;BME280;19080;51.750;5.888;2023-04-25T13:13:02;101327.25;;;16.54;43.27
32320;BME280;19080;51.750;5.888;2023-04-25T13:15:28;101378.69;;;17.75;42.84
32320;BME280;19080;51.750;5.888;2023-04-25T13:17:55;101374.97;;;17.97;40.58
32320;BME280;19080;51.750;5.888;2023-04-25T13:20:22;101380.66;;;17.36;40.48
32320;BME280;19080;51.750;5.888;2023-04-25T13:22:49;101370.72;;;17.56;38.66
32320;BME280;19080;51.750;5.888;2023-04-25T13:25:16;101382.56;;;18.60;37.23
32320;BME280;19080;51.750;5.888;2023-04-25T13:27:43;101375.75;;;19.11;35.22
32320;BME280;19080;51.750;5.888;2023-04-25T13:30:10;101302.78;;;18.63;34.66
32320;BME280;19080;51.750;5.888;2023-04-25T13:32:38;101380.31;;;19.06;33.89
32320;BME280;19080;51.750;5.888;2023-04-25T13:35:07;101372.19;;;19.07;33.80
32320;BME280;19080;51.750;5.888;2023-04-25T13:37:36;101381.72;;;19.36;33.63
32320;BME280;19080;51.750;5.888;2023-04-25T13:40:08;101378.91;;;20.12;32.33
32320;BME280;19080;51.750;5.888;2023-04-25T13:42:37;101367.00;;;20.26;31.26
32320;BME280;19080;51.750;5.888;2023-04-25T13:45:03;101303.06;;;19.80;32.23
32320;BME280;19080;51.750;5.888;2023-04-25T13:47:30;101374.91;;;20.38;32.28
32320;BME280;19080;51.750;5.888;2023-04-25T13:49:57;101376.47;;;19.94;32.69
32320;BME280;19080;51.750;5.888;2023-04-25T13:52:23;101375.75;;;18.14;34.91
32320;BME280;19080;51.750;5.888;2023-04-25T13:54:50;101319.22;;;16.20;37.44
32320;BME280;19080;51.750;5.888;2023-04-25T13:57:18;101339.72;;;15.74;39.68
32320;BME280;19080;51.750;5.888;2023-04-25T13:59:44;101336.97;;;15.50;40.31
32320;BME280;19080;51.750;5.888;2023-04-25T14:02:12;101306.63;;;16.89;38.45
32320;BME280;19080;51.750;5.888;2023-04-25T14:04:39;101332.72;;;18.22;36.29
32320;BME280;19080;51.750;5.888;2023-04-25T14:07:05;101385.13;;;18.76;35.17
32320;BME280;19080;51.750;5.888;2023-04-25T14:09:32;101391.56;;;19.38;35.21
32320;BME280;19080;51.750;5.888;2023-04-25T14:11:59;101293.50;;;18.92;32.33
32320;BME280;19080;51.750;5.888;2023-04-25T14:14:25;101385.25;;;20.08;31.89
32320;BME280;19080;51.750;5.888;2023-04-25T14:16:52;101387.47;;;20.37;30.98
32320;BME280;19080;51.750;5.888;2023-04-25T14:19:21;101382.38;;;20.21;31.00
32320;BME280;19080;51.750;5.888;2023-04-25T14:21:47;101380.84;;;19.35;31.95
32320;BME280;19080;51.750;5.888;2023-04-25T14:24:14;101399.75;;;19.29;31.85
32320;BME280;19080;51.750;5.888;2023-04-25T14:26:42;101309.81;;;17.71;33.49
32320;BME280;19080;51.750;5.888;2023-04-25T14:29:09;101392.91;;;17.94;33.58
32320;BME280;19080;51.750;5.888;2023-04-25T14:31:39;101371.66;;;17.43;34.52
32320;BME280;19080;51.750;5.888;2023-04-25T14:34:07;101309.53;;;18.09;33.50
32320;BME280;19080;51.750;5.888;2023-04-25T14:36:35;101358.91;;;19.67;32.33
32320;BME280;19080;51.750;5.888;2023-04-25T14:39:03;101384.09;;;20.78;32.08
32320;BME280;19080;51.750;5.888;2023-04-25T14:41:31;101368.34;;;20.54;31.32
32320;BME280;19080;51.750;5.888;2023-04-25T14:43:58;101385.81;;;20.30;31.03
32320;BME280;19080;51.750;5.888;2023-04-25T14:46:25;101369.53;;;19.78;31.92
32320;BME280;19080;51.750;5.888;2023-04-25T14:48:52;101378.13;;;20.61;29.95
32320;BME280;19080;51.750;5.888;2023-04-25T14:51:19;101371.34;;;20.85;29.65
32320;BME280;19080;51.750;5.888;2023-04-25T14:53:46;101369.41;;;20.93;30.02
32320;BME280;19080;51.750;5.888;2023-04-25T14:56:13;101391.09;;;19.78;30.23
32320;BME280;19080;51.750;5.888;2023-04-25T14:58:40;101405.47;;;17.90;32.50